Kezdőlap
METAR-TAF:

METAR-TAF

Repülőterek :

Sion, Svájc

földrajzi szélesség: 46-13N, földrajzi hosszúság: 007-20E, magasság: 482 m

Jelenlegi meteorológiai megfigyelések

A jelentés 22 perccel ezelõtt készült, 15:50 UTC
Szélcsend
Hőmérséklet 4°C
Páratartalom 60%
Légköri nyomás 1020 hPa
Látótávolság 10 km, vagy több
felhőtlen 1500 m magasságban, és nincs gomolyfelhõ

METAR: LSGS 061550Z 00000KT CAVOK 04/M03 Q1020

Idő: 17:12 (16:12 UTC)

Előrejelzés

A jelentés 1 órával és 47 perccel ezelõtt készült, 14:25 UTC
Az előrejelzés 06-én 15 óra UTC és 06-én 24 óra UTC között érvényes
Kelet-északkeleti szél 3 kt
Látótávolság 10 km, vagy több
felhőtlen 1500 m magasságban, és nincs gomolyfelhõ
06-én 20 óra UTC és 06-én 22 óra UTC között fokozatosan kialakuló
Látótávolság 10 km, vagy több
Szórványos felhőzet 8000 lábon

TAF: LSGS 061425Z 0615/0624 07003KT CAVOK BECMG 0620/0622 9999 SCT080

Meteorológiai megfigyelések és előrejelzések több, mint 4000 repülőtéren (METAR és TAF jelentéseket).

A térképen piros és sárga pontok jelzik az elérhető meteorológiai állomásokat.

Mozgassa az egeret a pont fölött, hogy megjelenjen az állomás neve.

Azután kattintson az időjárási megfigyelések és előrejelzések megtekintéséhez.

A térkép megváltoztatása: kattintson a fekete keresztel jelölt zöld gombra ráközelítéshez, a vonallal jelölt zöld gombra távolításhoz, vagy a zöld nyilakra a szomszédos térképek eléréséhez.


METAR-TAF: